Everton, MO (65646)

8:44 PM CDT on May 24, 2015 (GMT -0500)
Greenfield West (WOHSN) | | Change Station
CLOSE
Current Station
Personal Weather Station
Location: Greenfield, MO
Elevation: 1066 ft
Nearby Weather Stations

Elev 1066 ft 37.42 °N, 93.85 °W | Updated 14 minutes ago

Rain
Rain
64.6 °F
Feels Like 64.6 °F
N
0.0
Wind Variable Wind from SE

Today
High -- | Low -- °F
--% Chance of Precip.
Yesterday
High -- | Low -- °F
Precip. -- in
5:59 AM 8:24 PM
Waxing Crescent, 44% visible
Pressure 29.85 in
Visibility 3.0 miles
Clouds Few 2500 ft
Mostly Cloudy 3200 ft
Overcast 5500 ft
Dew Point 64 °F
Humidity 99%
Rainfall 0.93 in
Snow Depth Not available.
UV 0 out of 12
Pollen 1.00 out of 12
Air Quality Not available.
Flu Activity Sporadic
SPECI KSGF 250131Z 00000KT 3SM -RA BR FEW025 BKN032 OVC055 17/16 A2985 RMK AO2 P0017 T01720161

More Conditions Fewer Conditions

Pressure 29.85 in
Visibility 3.0 miles
Clouds Few 2500 ft
Mostly Cloudy 3200 ft
Overcast 5500 ft
Dew Point 64 °F
Humidity 99%
Rainfall 0.93 in
Snow Depth Not available.
UV 0 out of 12
Pollen 1.00 out of 12
Air Quality Not available.
Flu Activity Sporadic
SPECI KSGF 250131Z 00000KT 3SM -RA BR FEW025 BKN032 OVC055 17/16 A2985 RMK AO2 P0017 T01720161

More Conditions Fewer Conditions

10-Day Weather Forecast

Almanac

Astronomy

May. 24, 2015 Rise Set
Actual Time
Civil Twilight
Nautical Twilight
Astronomical Twilight
Moon
Length of Visible Light
Length of Day
Tomorrow will be .
, % of the Moon is Illuminated

Today's Extremes

State Highs State Lows

Community

WunderPhotos

Upload Photos

1,823,918 photos uploaded!

WunderBlogs® & News

Nearby

Air Quality

  Air Quality AQ Index Pollutant
Not available.

Snow Depth

Station Depth Elevation

Earthquake Activity

City Distance Mag. Time & Date
Minimum magnitude displayed is 2.5.

Coastal Water Temperatures

Place Temperature

Stations

Nearby Weather Stations

Station Location Temp. Windchill Dew Point Humidity Wind Precip. Elev Updated Type